Time;durP1;ratioP1;P1;durP2;ratioP2;P2;SDS_P1;SDS_P2;PMS_P1;PMS_P2;Temp;Humidity;BMP_temperature;BMP_pressure;BME280_temperature;BME280_humidity;BME280_pressure;Samples;Min_cycle;Max_cycle;Signal;HPM_P1;HPM_P2
2023/12/10 00:00:36;;;;;;;34.07;16.57;;;;;;;1.86;78.24;97111.91;4911043;29;20203;-71
2023/12/10 00:03:04;;;;;;;40.23;15.73;;;;;;;1.72;78.12;97084.00;4908860;29;20334;-69
2023/12/10 00:05:31;;;;;;;30.73;13.80;;;;;;;1.92;77.92;97122.06;4910633;29;20209;-70
2023/12/10 00:07:58;;;;;;;32.17;14.17;;;;;;;2.06;77.63;97118.47;4909357;29;20195;-70
2023/12/10 00:10:26;;;;;;;33.27;15.57;;;;;;;1.39;78.29;97031.59;4910490;29;20222;-70
2023/12/10 00:12:53;;;;;;;30.40;13.00;;;;;;;1.45;80.28;97113.19;4911504;29;20245;-72
2023/12/10 00:15:20;;;;;;;40.70;15.90;;;;;;;1.45;80.91;97108.06;4908668;29;20198;-74
2023/12/10 00:17:48;;;;;;;33.33;15.70;;;;;;;0.99;81.56;97103.38;4919065;29;20210;-72
2023/12/10 00:20:16;;;;;;;35.27;14.63;;;;;;;1.16;82.00;97112.56;4909212;29;20206;-73
2023/12/10 00:22:45;;;;;;;35.03;14.00;;;;;;;1.07;82.27;97122.84;4910895;29;20694;-70
2023/12/10 00:25:12;;;;;;;34.03;15.13;;;;;;;1.30;82.35;97110.75;4909237;29;20230;-74
2023/12/10 00:27:42;;;;;;;33.03;14.43;;;;;;;1.09;82.47;97082.91;4909579;29;20305;-72
2023/12/10 00:30:10;;;;;;;32.13;14.00;;;;;;;0.91;83.00;97105.97;4909767;29;20199;-73
2023/12/10 00:32:37;;;;;;;40.03;17.03;;;;;;;1.02;84.00;97114.41;4910559;29;20282;-74
2023/12/10 00:35:06;;;;;;;42.63;15.73;;;;;;;1.34;82.70;97111.59;4912419;29;20250;-72
2023/12/10 00:37:34;;;;;;;44.57;16.87;;;;;;;1.28;81.65;97061.47;4895723;29;20221;-72
2023/12/10 00:40:03;;;;;;;44.33;16.27;;;;;;;1.71;81.65;97102.69;4913912;29;20682;-73
2023/12/10 00:42:31;;;;;;;35.33;15.63;;;;;;;1.85;80.95;97090.66;4912552;29;20222;-74
2023/12/10 00:44:59;;;;;;;34.93;14.83;;;;;;;2.19;79.64;97117.50;4913682;29;20213;-71
2023/12/10 00:47:26;;;;;;;29.97;12.73;;;;;;;1.91;79.68;97084.63;4913081;29;20218;-73
2023/12/10 00:49:54;;;;;;;33.63;13.77;;;;;;;2.06;80.34;97103.16;4911471;29;20202;-73
2023/12/10 00:52:21;;;;;;;27.07;11.77;;;;;;;2.08;78.98;97077.63;4913674;29;20195;-71
2023/12/10 00:54:48;;;;;;;32.50;14.03;;;;;;;2.20;78.43;97085.13;4912400;29;20713;-70
2023/12/10 00:57:16;;;;;;;27.30;12.80;;;;;;;2.10;79.37;97088.66;4920590;29;20210;-70
2023/12/10 00:59:43;;;;;;;33.40;14.83;;;;;;;2.13;79.43;97086.91;4919684;29;20301;-71
2023/12/10 01:02:10;;;;;;;36.07;14.57;;;;;;;2.37;79.20;97096.00;4912134;29;20241;-74
2023/12/10 01:04:37;;;;;;;29.07;13.40;;;;;;;2.25;78.43;97083.34;4912645;29;20214;-71
2023/12/10 01:07:07;;;;;;;31.13;13.27;;;;;;;2.34;78.34;97091.75;4879832;29;20651;-73
2023/12/10 01:09:36;;;;;;;28.17;12.70;;;;;;;1.88;78.71;97029.34;4913196;29;20689;-72
2023/12/10 01:12:03;;;;;;;30.17;12.87;;;;;;;2.34;79.22;97085.81;4911875;29;20210;-70
2023/12/10 01:14:31;;;;;;;29.27;12.77;;;;;;;2.23;79.28;97078.28;4913509;29;20238;-71
2023/12/10 01:16:59;;;;;;;24.00;10.60;;;;;;;2.11;79.27;97075.88;4911924;29;20285;-71
2023/12/10 01:19:26;;;;;;;25.47;9.80;;;;;;;2.10;78.71;97086.13;4912198;29;20250;-72
2023/12/10 01:21:54;;;;;;;25.77;10.93;;;;;;;2.25;79.02;97071.44;4912449;29;20187;-70
2023/12/10 01:24:21;;;;;;;28.57;10.97;;;;;;;2.05;79.04;97070.84;4912735;29;20249;-71
2023/12/10 01:26:48;;;;;;;27.80;11.47;;;;;;;1.84;79.33;97048.09;4895984;29;20282;-71
2023/12/10 01:29:15;;;;;;;25.80;11.10;;;;;;;1.84;79.76;97065.13;4912019;29;20250;-73
2023/12/10 01:31:44;;;;;;;33.53;12.10;;;;;;;1.99;80.05;97064.97;4912953;29;20277;-70
2023/12/10 01:34:11;;;;;;;26.07;10.53;;;;;;;2.00;79.38;97069.22;4892190;29;20219;-72
2023/12/10 01:36:38;;;;;;;30.53;11.60;;;;;;;1.77;80.68;97061.81;4892820;29;20199;-71
2023/12/10 01:39:07;;;;;;;25.17;10.00;;;;;;;1.95;79.74;97076.06;4899298;29;20887;-69
2023/12/10 01:41:34;;;;;;;25.83;11.20;;;;;;;2.16;79.75;97070.72;4903388;29;20203;-70
2023/12/10 01:44:01;;;;;;;22.30;10.00;;;;;;;2.08;78.79;97052.09;4892632;29;20631;-72
2023/12/10 01:46:28;;;;;;;29.10;11.60;;;;;;;2.19;78.92;97070.66;4892228;29;20229;-69
2023/12/10 01:48:56;;;;;;;28.23;12.07;;;;;;;2.17;78.90;97069.84;4893782;29;20266;-71
2023/12/10 01:51:24;;;;;;;31.87;11.77;;;;;;;2.22;78.33;97075.75;4892252;29;20207;-70
2023/12/10 01:53:52;;;;;;;31.30;11.87;;;;;;;2.07;79.00;97060.59;4893452;29;20238;-74
2023/12/10 01:56:21;;;;;;;28.77;10.77;;;;;;;1.89;80.71;97063.38;4892269;29;20207;-72
2023/12/10 01:58:48;;;;;;;31.33;11.83;;;;;;;1.83;79.71;97060.91;4876417;29;20283;-70
2023/12/10 02:01:17;;;;;;;21.57;9.77;;;;;;;2.00;79.39;97048.78;4893231;29;20342;-70
2023/12/10 02:03:45;;;;;;;28.40;10.93;;;;;;;1.99;79.41;97057.28;4906717;29;20713;-70
2023/12/10 02:06:12;;;;;;;31.07;11.43;;;;;;;1.83;80.18;97055.78;4893352;29;20770;-70
2023/12/10 02:08:40;;;;;;;25.77;10.60;;;;;;;1.92;80.16;97066.72;4892259;29;20210;-71
2023/12/10 02:11:07;;;;;;;29.00;11.37;;;;;;;1.98;79.73;97048.78;4893222;29;20203;-74
2023/12/10 02:13:34;;;;;;;29.50;11.93;;;;;;;2.14;79.47;97052.84;4891357;29;20246;-73
2023/12/10 02:16:02;;;;;;;29.53;11.97;;;;;;;2.00;79.94;97049.59;4892973;29;20250;-70
2023/12/10 02:18:30;;;;;;;26.33;11.77;;;;;;;1.46;80.76;97010.25;4892706;29;20262;-72
2023/12/10 02:21:18;;;;;;;33.73;13.33;;;;;;;1.32;83.39;97039.34;4891516;29;20234;-68
2023/12/10 02:23:59;;;;;;;34.90;14.20;;;;;;;1.38;83.64;97026.53;4894060;29;20638;-70
2023/12/10 02:26:26;;;;;;;33.47;12.63;;;;;;;1.08;83.94;96994.50;4892324;29;20203;-71
2023/12/10 02:28:54;;;;;;;43.67;14.90;;;;;;;1.56;83.46;97039.94;4894137;29;20205;-72
2023/12/10 02:31:24;;;;;;;27.80;12.70;;;;;;;1.56;83.77;97036.53;4893570;29;20614;-71
2023/12/10 02:33:51;;;;;;;33.60;13.63;;;;;;;1.56;82.91;97026.31;4893480;29;20215;-71
2023/12/10 02:36:19;;;;;;;32.47;13.57;;;;;;;1.75;82.87;97038.03;4894455;29;20259;-72
2023/12/10 02:38:47;;;;;;;35.97;13.37;;;;;;;1.64;82.46;97030.50;4892178;29;20315;-71
2023/12/10 02:41:15;;;;;;;33.07;15.03;;;;;;;1.79;82.25;97028.63;4892627;29;20213;-70
2023/12/10 02:43:42;;;;;;;32.83;13.10;;;;;;;1.93;81.96;97032.69;4874835;29;20820;-72
2023/12/10 02:46:10;;;;;;;35.67;14.07;;;;;;;1.76;80.75;96977.59;4892931;29;20207;-72
2023/12/10 02:48:37;;;;;;;31.83;12.93;;;;;;;1.88;80.87;97019.13;4891564;29;20219;-73
2023/12/10 02:51:04;;;;;;;37.33;13.67;;;;;;;1.49;81.36;96959.19;4891920;29;20259;-73
2023/12/10 02:53:31;;;;;;;30.00;13.20;;;;;;;1.74;81.04;97004.84;4892318;29;20191;-71
2023/12/10 02:55:59;;;;;;;31.93;13.00;;;;;;;1.83;80.91;97026.00;4891328;29;20218;-71
2023/12/10 02:58:26;;;;;;;30.70;13.07;;;;;;;1.75;81.40;97009.09;4891053;29;20258;-71
2023/12/10 03:00:54;;;;;;;40.40;14.87;;;;;;;1.98;81.00;97017.31;4890923;29;20258;-74
2023/12/10 03:03:21;;;;;;;32.83;13.30;;;;;;;1.95;81.35;97019.91;4892132;29;20239;-74
2023/12/10 03:05:48;;;;;;;36.83;13.10;;;;;;;2.01;81.03;97030.88;4891334;29;20225;-74
2023/12/10 03:08:15;;;;;;;36.33;13.23;;;;;;;2.06;81.61;97030.84;4891862;29;20620;-73
2023/12/10 03:10:42;;;;;;;27.70;10.77;;;;;;;2.20;80.36;97018.72;4890646;29;20244;-75
2023/12/10 03:13:10;;;;;;;32.03;12.27;;;;;;;2.13;80.39;97030.72;4891102;29;20203;-71
2023/12/10 03:15:37;;;;;;;26.07;10.40;;;;;;;2.14;79.86;97019.63;4892055;29;20717;-72
2023/12/10 03:18:05;;;;;;;29.60;11.47;;;;;;;1.83;80.07;96963.91;4890813;29;20199;-70
2023/12/10 03:20:33;;;;;;;33.10;12.20;;;;;;;2.22;79.98;97028.06;4892123;29;20195;-72
2023/12/10 03:23:01;;;;;;;35.27;12.87;;;;;;;2.33;80.15;97025.34;4890941;29;20203;-74
2023/12/10 03:25:28;;;;;;;36.73;14.07;;;;;;;2.21;79.76;97017.84;4891860;29;20307;-71
2023/12/10 03:27:55;;;;;;;24.40;10.93;;;;;;;2.30;78.94;97010.91;4891667;29;20198;-72
2023/12/10 03:30:22;;;;;;;31.53;11.77;;;;;;;2.26;79.15;97039.06;4890802;29;20582;-73
2023/12/10 03:32:50;;;;;;;29.67;11.33;;;;;;;2.26;79.27;97031.41;4891806;29;21083;-74
2023/12/10 03:35:17;;;;;;;34.87;12.03;;;;;;;2.30;79.20;97035.63;4890284;29;20231;-72
2023/12/10 03:37:44;;;;;;;28.13;11.10;;;;;;;2.36;79.57;97043.19;4890457;29;20203;-74
2023/12/10 03:40:12;;;;;;;31.67;11.60;;;;;;;2.17;79.86;97029.81;4890850;29;20588;-73
2023/12/10 03:42:39;;;;;;;28.77;11.20;;;;;;;2.08;79.63;97026.56;4891629;29;20238;-72
2023/12/10 03:45:07;;;;;;;25.27;11.40;;;;;;;2.12;79.49;97030.75;4874347;29;20199;-72
2023/12/10 03:47:34;;;;;;;34.40;12.50;;;;;;;2.21;79.53;97028.91;4905213;29;20206;-70
2023/12/10 03:50:03;;;;;;;27.60;11.67;;;;;;;2.20;79.66;97034.03;4891609;29;20301;-69
2023/12/10 03:52:30;;;;;;;32.43;12.70;;;;;;;2.21;79.64;97044.22;4873582;29;20213;-74
2023/12/10 03:54:58;;;;;;;33.60;12.70;;;;;;;2.06;79.24;97033.38;4891715;29;20231;-75
2023/12/10 03:57:25;;;;;;;32.43;13.40;;;;;;;2.07;80.42;97035.06;4889451;29;20218;-74
2023/12/10 03:59:52;;;;;;;35.13;13.97;;;;;;;2.21;80.01;97051.06;4891739;29;20699;-71
2023/12/10 04:02:19;;;;;;;30.57;13.37;;;;;;;2.11;80.51;97055.44;4890766;29;20239;-75
2023/12/10 04:04:46;;;;;;;33.60;13.27;;;;;;;1.94;81.63;97059.09;4891044;29;20295;-73
2023/12/10 04:07:13;;;;;;;32.23;13.50;;;;;;;2.10;81.39;97065.69;4905566;29;20206;-71
2023/12/10 04:09:41;;;;;;;34.73;13.70;;;;;;;2.09;80.42;97059.72;4891653;29;20199;-75
2023/12/10 04:12:08;;;;;;;34.37;13.43;;;;;;;2.19;80.88;97066.41;4895365;29;20294;-76
2023/12/10 04:14:35;;;;;;;26.60;12.63;;;;;;;2.09;79.90;97075.03;4893838;29;20231;-77
2023/12/10 04:17:03;;;;;;;34.80;13.43;;;;;;;2.11;80.20;97065.66;4895342;29;20217;-76
2023/12/10 04:19:30;;;;;;;29.00;13.10;;;;;;;2.08;80.91;97062.31;4894300;29;20211;-75
2023/12/10 04:21:57;;;;;;;29.80;12.53;;;;;;;1.73;80.72;97057.63;4894723;29;20215;-76
2023/12/10 04:24:25;;;;;;;28.17;12.57;;;;;;;1.58;82.20;97056.06;4893604;29;20596;-74
2023/12/10 04:26:52;;;;;;;31.47;12.97;;;;;;;1.64;83.23;97060.25;4894066;29;20223;-73
2023/12/10 04:29:19;;;;;;;26.07;11.50;;;;;;;1.64;83.31;97050.06;4895255;29;20187;-74
2023/12/10 04:31:46;;;;;;;40.83;13.63;;;;;;;1.67;82.49;97040.66;4893881;29;20234;-74
2023/12/10 04:34:13;;;;;;;35.70;13.80;;;;;;;1.54;83.89;97041.66;4894956;29;20247;-74
2023/12/10 04:36:40;;;;;;;36.27;13.90;;;;;;;1.55;83.78;97040.78;4893922;29;20207;-74
2023/12/10 04:39:08;;;;;;;38.87;16.00;;;;;;;1.36;84.73;97021.41;4894813;29;20203;-74
2023/12/10 04:41:36;;;;;;;36.57;14.30;;;;;;;1.42;85.62;97034.09;4908882;29;20214;-73
2023/12/10 04:44:03;;;;;;;32.50;13.53;;;;;;;1.51;85.26;97031.47;4893807;29;20267;-73
2023/12/10 04:46:30;;;;;;;35.10;13.40;;;;;;;1.55;85.52;97022.91;4893528;29;20207;-73
2023/12/10 04:48:57;;;;;;;39.27;14.90;;;;;;;1.67;84.86;97026.22;4876329;29;20593;-71
2023/12/10 04:51:24;;;;;;;45.13;18.57;;;;;;;1.94;84.16;97033.53;4894630;29;20209;-75
2023/12/10 04:53:51;;;;;;;34.63;13.87;;;;;;;1.93;84.04;97031.84;4893407;29;20207;-73
2023/12/10 04:56:19;;;;;;;36.93;14.37;;;;;;;2.05;83.01;97034.25;4894254;29;20254;-72
2023/12/10 04:58:46;;;;;;;31.43;12.43;;;;;;;2.01;83.58;97030.88;4894008;29;20458;-73
2023/12/10 05:01:13;;;;;;;29.63;12.77;;;;;;;2.15;83.33;97026.44;4893517;29;20211;-76
2023/12/10 05:03:41;;;;;;;33.53;13.17;;;;;;;2.23;82.04;97022.06;4894153;29;20235;-74
2023/12/10 05:06:08;;;;;;;31.07;12.73;;;;;;;2.32;82.42;97021.97;4893344;29;20203;-74
2023/12/10 05:08:35;;;;;;;34.37;14.37;;;;;;;2.32;81.88;97021.09;4894404;29;20199;-74
2023/12/10 05:11:03;;;;;;;30.73;13.20;;;;;;;2.27;82.27;97028.81;4892812;29;20238;-71
2023/12/10 05:13:30;;;;;;;36.27;14.17;;;;;;;2.33;82.25;97023.63;4894142;29;20207;-75
2023/12/10 05:15:57;;;;;;;33.27;13.70;;;;;;;2.27;81.66;97026.28;4893525;29;20230;-75
2023/12/10 05:18:24;;;;;;;33.50;14.50;;;;;;;2.27;81.75;97031.38;4893839;29;20203;-74
2023/12/10 05:20:52;;;;;;;31.93;13.07;;;;;;;2.17;81.71;97011.94;4892770;29;20243;-73
2023/12/10 05:23:20;;;;;;;34.27;14.37;;;;;;;2.28;81.65;97032.22;4892885;29;20566;-72
2023/12/10 05:25:47;;;;;;;37.43;14.83;;;;;;;2.49;81.92;97042.16;4894158;29;20306;-71
2023/12/10 05:28:14;;;;;;;34.83;14.63;;;;;;;2.40;80.83;97040.56;4893061;29;20213;-71
2023/12/10 05:30:41;;;;;;;30.70;13.20;;;;;;;1.79;82.06;96988.63;4894157;29;20298;-72
2023/12/10 05:33:08;;;;;;;24.63;10.53;;;;;;;1.69;82.94;97032.13;4893080;29;20215;-70
2023/12/10 05:35:36;;;;;;;30.47;12.73;;;;;;;1.74;82.11;97046.53;4893530;29;20231;-72
2023/12/10 05:38:03;;;;;;;27.47;12.77;;;;;;;1.56;81.79;97047.59;4893684;29;20262;-69
2023/12/10 05:40:30;;;;;;;39.10;14.03;;;;;;;0.93;84.34;97026.97;4892683;29;20210;-70
2023/12/10 05:42:57;;;;;;;37.43;14.23;;;;;;;1.26;84.17;97047.88;4893803;29;20191;-69
2023/12/10 05:45:25;;;;;;;37.40;15.27;;;;;;;1.13;84.48;97045.47;4892367;29;20279;-70
2023/12/10 05:47:52;;;;;;;33.77;14.10;;;;;;;0.68;85.05;97039.06;4893704;29;20726;-71
2023/12/10 05:50:20;;;;;;;42.13;15.60;;;;;;;0.47;87.20;97037.50;4909014;29;20198;-73
2023/12/10 05:52:47;;;;;;;38.43;15.43;;;;;;;0.53;87.23;97036.59;4911088;29;20285;-69
2023/12/10 05:55:14;;;;;;;32.77;14.80;;;;;;;0.56;87.26;97047.59;4911906;29;20297;-69
2023/12/10 05:57:41;;;;;;;36.33;16.00;;;;;;;0.46;86.74;96986.53;4911322;29;20233;-74
2023/12/10 06:00:09;;;;;;;40.27;17.47;;;;;;;1.11;85.32;97052.28;4911888;29;20242;-73
2023/12/10 06:02:36;;;;;;;44.67;18.67;;;;;;;1.25;85.07;97043.66;4910834;29;20257;-70
2023/12/10 06:05:03;;;;;;;47.97;20.53;;;;;;;1.01;85.64;96987.75;4894532;29;20646;-71
2023/12/10 06:07:31;;;;;;;43.27;18.37;;;;;;;1.59;83.91;97047.53;4910809;29;20241;-76
2023/12/10 06:09:58;;;;;;;42.53;17.23;;;;;;;1.69;83.84;97045.72;4895389;29;20644;-73
2023/12/10 06:12:25;;;;;;;38.77;16.67;;;;;;;1.88;82.92;97069.34;4901825;29;20202;-74
2023/12/10 06:14:52;;;;;;;50.80;20.27;;;;;;;1.72;83.24;97067.81;4900556;29;20301;-72
2023/12/10 06:17:19;;;;;;;39.47;16.80;;;;;;;1.70;82.72;97061.88;4903630;29;20186;-76
2023/12/10 06:19:46;;;;;;;43.13;15.90;;;;;;;1.67;81.90;97067.88;4910263;29;20199;-75
2023/12/10 06:22:14;;;;;;;35.97;14.47;;;;;;;1.21;84.00;97048.78;4894407;29;20266;-71
2023/12/10 06:24:42;;;;;;;29.77;12.27;;;;;;;1.08;84.80;97058.25;4910205;29;20195;-75
2023/12/10 06:27:09;;;;;;;34.30;12.90;;;;;;;1.39;84.32;97069.88;4911110;29;20203;-72
2023/12/10 06:29:45;;;;;;;28.13;12.73;;;;;;;1.38;84.80;97075.81;4910669;29;20258;-70
2023/12/10 06:32:12;;;;;;;38.53;15.17;;;;;;;1.61;83.86;97073.88;4910102;29;20206;-74
2023/12/10 06:34:39;;;;;;;36.73;14.23;;;;;;;1.26;84.34;97072.53;4896873;29;20668;-70
2023/12/10 06:37:06;;;;;;;34.90;14.73;;;;;;;1.12;84.43;97075.22;4929355;29;20749;-73
2023/12/10 06:39:34;;;;;;;36.07;15.87;;;;;;;0.94;85.72;97064.31;4930803;29;20202;-74
2023/12/10 06:42:01;;;;;;;38.63;15.57;;;;;;;1.19;85.33;97078.56;4929167;29;20213;-74
2023/12/10 06:44:28;;;;;;;38.57;15.77;;;;;;;0.96;84.78;97077.91;4930182;29;20205;-75
2023/12/10 06:46:56;;;;;;;32.63;14.13;;;;;;;1.28;84.41;97076.75;4930127;29;20592;-71
2023/12/10 06:49:23;;;;;;;40.87;16.07;;;;;;;1.29;84.66;97073.38;4929865;29;20704;-74
2023/12/10 06:51:50;;;;;;;33.77;15.50;;;;;;;0.90;84.54;97006.56;4913774;29;20198;-75
2023/12/10 06:54:17;;;;;;;39.30;17.57;;;;;;;1.50;84.17;97070.63;4909745;29;20553;-73
2023/12/10 06:56:44;;;;;;;40.93;17.77;;;;;;;1.49;83.40;97075.72;4910144;29;20226;-71
2023/12/10 06:59:12;;;;;;;39.83;17.00;;;;;;;1.37;83.08;97089.44;4909294;29;20285;-73
2023/12/10 07:01:39;;;;;;;36.47;16.33;;;;;;;1.44;83.30;97096.16;4910580;29;20234;-74
2023/12/10 07:04:07;;;;;;;39.90;16.83;;;;;;;1.19;84.88;97087.06;4910064;29;20214;-73
2023/12/10 07:06:36;;;;;;;40.57;18.10;;;;;;;1.00;86.11;97100.81;4910580;29;20212;-74
2023/12/10 07:09:06;;;;;;;35.60;16.17;;;;;;;1.32;85.21;97091.19;4910159;29;20233;-74
2023/12/10 07:11:34;;;;;;;40.17;16.90;;;;;;;1.37;84.00;97075.84;4892619;29;20258;-73
2023/12/10 07:14:02;;;;;;;43.73;17.80;;;;;;;1.52;83.07;97066.34;4911159;29;20209;-73
2023/12/10 07:16:29;;;;;;;49.10;19.37;;;;;;;1.80;83.31;97104.31;4909733;29;20685;-74
2023/12/10 07:18:57;;;;;;;36.77;16.13;;;;;;;1.97;82.39;97103.28;4910894;29;20193;-74
2023/12/10 07:21:25;;;;;;;31.53;13.63;;;;;;;2.12;81.38;97115.03;4910452;29;20290;-76
2023/12/10 07:23:55;;;;;;;39.97;15.20;;;;;;;2.00;82.21;97115.19;4893428;29;20250;-76
2023/12/10 07:26:23;;;;;;;34.50;13.00;;;;;;;1.97;81.04;97090.53;4908908;29;20274;-73
2023/12/10 07:28:54;;;;;;;33.27;12.53;;;;;;;2.06;81.38;97115.94;4909815;29;20195;-76
2023/12/10 07:31:33;;;;;;;24.30;11.20;;;;;;;1.98;81.70;97119.47;4911270;29;20198;-74
2023/12/10 07:34:01;;;;;;;29.83;12.67;;;;;;;2.07;81.38;97129.56;4893718;29;20230;-69
2023/12/10 07:36:30;;;;;;;33.90;13.37;;;;;;;2.14;80.78;97115.88;4892480;29;20238;-72
2023/12/10 07:38:57;;;;;;;35.03;13.90;;;;;;;2.02;79.83;97108.34;4904408;29;20797;-72
2023/12/10 07:41:24;;;;;;;33.63;13.90;;;;;;;2.13;80.57;97126.94;4889690;29;20214;-71
2023/12/10 07:44:10;;;;;;;32.60;12.70;;;;;;;1.83;80.59;97101.75;4900175;29;20571;-75
2023/12/10 07:47:07;;;;;;;45.67;15.33;;;;;;;2.19;81.52;97137.06;4903378;29;20207;-74
2023/12/10 07:49:44;;;;;;;37.27;15.20;;;;;;;2.21;81.30;97135.34;4914950;29;20270;-73
2023/12/10 07:52:13;;;;;;;37.73;14.80;;;;;;;2.18;80.35;97145.63;4913502;29;20189;-72
2023/12/10 07:54:40;;;;;;;40.87;16.27;;;;;;;2.14;81.06;97134.56;4916852;29;20213;-71
2023/12/10 07:57:07;;;;;;;38.63;15.27;;;;;;;2.18;80.42;97125.19;4920865;29;20233;-70
2023/12/10 07:59:34;;;;;;;36.50;14.40;;;;;;;2.15;79.74;97076.66;4915434;29;20221;-72
2023/12/10 08:02:02;;;;;;;38.63;15.33;;;;;;;2.30;79.46;97084.16;4914809;29;20230;-74
2023/12/10 08:04:29;;;;;;;57.93;14.97;;;;;;;2.68;79.72;97134.78;4897082;29;20202;-71
2023/12/10 08:06:56;;;;;;;34.43;15.27;;;;;;;2.59;79.97;97138.28;4897752;29;20769;-75
2023/12/10 08:09:23;;;;;;;30.90;14.93;;;;;;;2.75;79.25;97139.75;4913008;29;20213;-73
2023/12/10 08:11:51;;;;;;;34.07;15.67;;;;;;;3.01;78.65;97134.28;4914566;29;20964;-75
2023/12/10 08:14:18;;;;;;;39.17;16.70;;;;;;;3.02;77.75;97131.72;4913109;29;20269;-72
2023/12/10 08:16:45;;;;;;;42.70;18.13;;;;;;;2.98;78.80;97132.63;4913459;29;20314;-74
2023/12/10 08:19:12;;;;;;;39.00;16.33;;;;;;;3.04;78.09;97137.66;4913555;29;20899;-76
2023/12/10 08:21:39;;;;;;;41.10;18.17;;;;;;;3.25;77.80;97134.75;4912637;29;20195;-70
2023/12/10 08:24:07;;;;;;;36.13;16.87;;;;;;;3.01;77.56;97137.66;4913012;29;20195;-71
2023/12/10 08:26:34;;;;;;;38.83;16.53;;;;;;;3.03;77.71;97141.06;4912484;29;20213;-73
2023/12/10 08:29:02;;;;;;;41.63;16.87;;;;;;;3.19;77.76;97139.13;4913694;29;20194;-70
2023/12/10 08:31:29;;;;;;;41.63;17.93;;;;;;;2.96;78.06;97108.78;4912362;29;20204;-70
2023/12/10 08:33:56;;;;;;;38.67;17.50;;;;;;;3.03;78.52;97138.50;4896195;29;20653;-73
2023/12/10 08:36:24;;;;;;;35.83;16.27;;;;;;;3.01;78.43;97124.06;4911726;29;20289;-74
2023/12/10 08:38:52;;;;;;;40.77;17.60;;;;;;;2.85;79.12;97113.19;4916251;29;20215;-72
2023/12/10 08:41:19;;;;;;;37.40;17.67;;;;;;;3.06;78.81;97119.72;4918989;29;20194;-71
2023/12/10 08:43:46;;;;;;;37.07;16.80;;;;;;;3.24;78.43;97125.38;4912759;29;20634;-74
2023/12/10 08:46:13;;;;;;;42.17;18.03;;;;;;;3.26;78.31;97121.09;4893363;29;20254;-71
2023/12/10 08:48:42;;;;;;;42.60;18.07;;;;;;;3.19;78.36;97093.91;4907960;29;20286;-71
2023/12/10 08:51:09;;;;;;;44.43;20.87;;;;;;;3.40;77.92;97112.34;4894648;29;20305;-71
2023/12/10 08:53:38;;;;;;;43.80;18.23;;;;;;;3.17;78.46;97080.28;4876627;29;20679;-73
2023/12/10 08:56:05;;;;;;;47.73;18.57;;;;;;;3.06;78.26;97037.84;4893718;29;20227;-71
2023/12/10 08:58:33;;;;;;;35.43;16.83;;;;;;;3.51;77.52;97102.75;4893907;29;20202;-70
2023/12/10 09:01:00;;;;;;;43.90;18.03;;;;;;;3.58;77.45;97094.97;4893252;29;20298;-74
2023/12/10 09:03:28;;;;;;;36.80;16.47;;;;;;;3.67;77.50;97102.47;4893887;29;20761;-76
2023/12/10 09:05:55;;;;;;;44.33;19.27;;;;;;;3.68;77.18;97096.47;4893159;29;20193;-74
2023/12/10 09:08:22;;;;;;;49.00;19.50;;;;;;;3.66;77.54;97092.25;4894453;29;20203;-73
2023/12/10 09:10:49;;;;;;;39.87;16.77;;;;;;;3.59;78.14;97070.19;4893229;29;20857;-75
2023/12/10 09:13:17;;;;;;;33.33;14.57;;;;;;;3.69;78.06;97087.09;4894077;29;20187;-74
2023/12/10 09:15:46;;;;;;;28.93;14.07;;;;;;;3.59;78.13;97080.44;4893736;29;20573;-70
2023/12/10 09:18:13;;;;;;;33.00;14.70;;;;;;;3.51;78.38;97072.88;4893661;29;20285;-70
2023/12/10 09:20:40;;;;;;;35.90;16.37;;;;;;;3.49;78.87;97059.28;4904079;29;20215;-74
2023/12/10 09:23:08;;;;;;;44.07;17.27;;;;;;;3.41;79.03;97047.47;4904616;29;20279;-73
2023/12/10 09:25:35;;;;;;;37.17;15.30;;;;;;;3.52;78.83;97079.72;4884331;29;20693;-70
2023/12/10 09:28:02;;;;;;;41.97;16.03;;;;;;;3.67;78.73;97070.91;4895389;29;20298;-72
2023/12/10 09:30:33;;;;;;;46.13;16.90;;;;;;;3.75;78.56;97071.63;4912300;29;20747;-72
2023/12/10 09:33:01;;;;;;;33.03;15.43;;;;;;;3.68;78.56;97063.19;4912264;29;20705;-74
2023/12/10 09:35:28;;;;;;;39.40;16.97;;;;;;;3.54;79.20;97039.56;4911887;29;20237;-75
2023/12/10 09:37:55;;;;;;;37.47;16.93;;;;;;;3.70;78.47;97053.78;4912795;29;20205;-73
2023/12/10 09:40:22;;;;;;;39.50;16.30;;;;;;;3.53;78.94;97054.94;4911262;29;20221;-71
2023/12/10 09:42:49;;;;;;;62.60;27.60;;;;;;;3.51;78.86;97051.56;4912368;29;20669;-71
2023/12/10 09:45:16;;;;;;;45.17;17.93;;;;;;;3.61;79.29;97053.94;4911559;29;20692;-71
2023/12/10 09:47:44;;;;;;;49.90;19.43;;;;;;;3.69;78.83;97051.25;4895131;29;20203;-74
2023/12/10 09:50:12;;;;;;;38.57;15.47;;;;;;;3.62;78.40;97024.91;4894576;29;20251;-71
2023/12/10 09:52:39;;;;;;;39.13;15.33;;;;;;;3.37;78.94;97020.25;4910433;29;20195;-73
2023/12/10 09:55:07;;;;;;;33.67;15.50;;;;;;;3.64;78.81;97042.78;4912126;29;20700;-73
2023/12/10 09:57:34;;;;;;;40.80;16.47;;;;;;;3.62;79.21;97034.28;4911013;29;20712;-76
2023/12/10 10:00:03;;;;;;;34.70;15.93;;;;;;;3.64;78.82;97033.41;4912464;29;20242;-73
2023/12/10 10:02:33;;;;;;;33.63;14.37;;;;;;;3.53;79.11;97013.97;4913274;29;20247;-73
2023/12/10 10:05:02;;;;;;;41.00;16.77;;;;;;;3.79;79.12;97019.47;4917351;29;20282;-72
2023/12/10 10:07:30;;;;;;;36.33;15.10;;;;;;;3.78;78.97;97017.75;4911120;29;20917;-74
2023/12/10 10:09:58;;;;;;;37.80;16.10;;;;;;;3.67;78.78;97002.59;4910166;29;20195;-71
2023/12/10 10:12:29;;;;;;;35.10;15.63;;;;;;;3.75;79.51;96997.34;4911901;29;20204;-70
2023/12/10 10:14:58;;;;;;;43.23;19.03;;;;;;;3.82;79.10;97001.47;4914310;29;20202;-70
2023/12/10 10:17:30;;;;;;;38.37;16.57;;;;;;;3.83;79.13;96983.50;4914862;29;20305;-74
2023/12/10 10:19:59;;;;;;;39.17;16.23;;;;;;;3.94;79.15;97004.63;4912289;29;20206;-72
2023/12/10 10:22:30;;;;;;;39.43;15.87;;;;;;;3.90;79.39;96997.03;4894947;29;20206;-71
2023/12/10 10:24:58;;;;;;;34.93;15.07;;;;;;;3.94;79.40;96996.09;4911308;29;20294;-75
2023/12/10 10:27:25;;;;;;;42.03;19.10;;;;;;;3.96;78.58;96992.63;4912005;29;20683;-70
2023/12/10 10:29:54;;;;;;;44.17;19.27;;;;;;;3.87;79.04;96958.69;4911626;29;20283;-74
2023/12/10 10:32:22;;;;;;;38.70;17.93;;;;;;;3.75;79.50;96984.56;4910288;29;20267;-73
2023/12/10 10:34:50;;;;;;;45.37;18.60;;;;;;;3.83;79.56;96982.66;4911284;29;20583;-74
2023/12/10 10:37:18;;;;;;;35.50;16.57;;;;;;;3.97;79.43;96962.72;4893199;29;20226;-72
2023/12/10 10:39:49;;;;;;;45.53;17.93;;;;;;;3.94;80.17;96963.63;4894243;29;20230;-74
2023/12/10 10:42:20;;;;;;;38.37;17.90;;;;;;;4.28;79.53;96976.56;4910768;29;20257;-70
2023/12/10 10:44:47;;;;;;;36.07;16.80;;;;;;;4.13;79.79;96975.19;4920314;29;20277;-71
2023/12/10 10:47:18;;;;;;;42.57;17.23;;;;;;;4.12;78.95;96955.53;4921394;29;20659;-70
2023/12/10 10:49:57;;;;;;;49.17;19.83;;;;;;;3.98;79.27;96949.03;4910489;29;20630;-72
2023/12/10 10:52:45;;;;;;;41.93;18.80;;;;;;;4.32;78.80;96960.25;4911334;29;20206;-73
2023/12/10 10:55:15;;;;;;;42.40;19.00;;;;;;;4.53;78.37;96959.75;4910883;29;20251;-73
2023/12/10 10:57:42;;;;;;;51.70;19.03;;;;;;;4.69;77.37;96955.94;4910473;29;20841;-72
2023/12/10 11:00:20;;;;;;;54.20;18.50;;;;;;;4.58;77.82;96960.47;4893758;29;20634;-76
2023/12/10 11:02:53;;;;;;;47.97;19.17;;;;;;;4.49;78.21;96940.16;4909640;29;20232;-70
2023/12/10 11:05:33;;;;;;;44.87;18.60;;;;;;;4.34;79.53;96949.94;4911262;29;20206;-73
2023/12/10 11:08:04;;;;;;;42.67;18.90;;;;;;;4.41;78.78;96949.75;4910168;29;20230;-74
2023/12/10 11:10:32;;;;;;;45.73;18.50;;;;;;;4.55;78.59;96950.31;4910350;29;20285;-72
2023/12/10 11:13:00;;;;;;;40.37;18.43;;;;;;;4.59;78.98;96946.78;4910606;29;21333;-73
2023/12/10 11:15:28;;;;;;;50.73;20.53;;;;;;;4.65;78.10;96926.13;4910139;29;20202;-72
2023/12/10 11:17:59;;;;;;;41.23;17.40;;;;;;;4.68;77.95;96933.72;4910975;29;20257;-74
2023/12/10 11:20:39;;;;;;;51.03;18.97;;;;;;;4.54;79.08;96924.69;4906109;29;20206;-72
2023/12/10 11:23:09;;;;;;;41.43;18.20;;;;;;;4.60;78.40;96917.69;4910518;29;20210;-72
2023/12/10 11:25:38;;;;;;;44.27;18.97;;;;;;;4.55;78.36;96904.16;4901994;29;20202;-72
2023/12/10 11:28:20;;;;;;;48.77;20.17;;;;;;;4.19;79.07;96875.97;4918840;29;20651;-72